Time;durP1;ratioP1;P1;durP2;ratioP2;P2;SDS_P1;SDS_P2;PMS_P1;PMS_P2;Temp;Humidity;BMP_temperature;BMP_pressure;BME280_temperature;BME280_humidity;BME280_pressure;Samples;Min_cycle;Max_cycle;Signal;HPM_P1;HPM_P2
2021/04/13 00:01:14;;;;;;;2.93;2.13;;;2.00;99.90;;;;;;5083295;28;20555;-72
2021/04/13 00:03:48;;;;;;;2.13;2.03;;;2.00;99.90;;;;;;5081009;28;20487;-71
2021/04/13 00:06:40;;;;;;;2.40;2.27;;;2.00;99.90;;;;;;5081393;28;20470;-72
2021/04/13 00:09:21;;;;;;;2.77;2.00;;;2.00;99.90;;;;;;5080538;28;20433;-72
2021/04/13 00:11:56;;;;;;;4.80;2.30;;;2.00;99.90;;;;;;5081313;28;20430;-72
2021/04/13 00:14:33;;;;;;;2.63;2.40;;;1.90;99.90;;;;;;5082099;28;20416;-72
2021/04/13 00:17:03;;;;;;;2.10;1.93;;;1.90;99.90;;;;;;5081001;28;20426;-71
2021/04/13 00:20:00;;;;;;;3.33;2.40;;;1.90;99.90;;;;;;5096072;28;20880;-71
2021/04/13 00:22:27;;;;;;;2.13;1.80;;;1.80;99.90;;;;;;5079783;28;20747;-71
2021/04/13 00:24:54;;;;;;;2.27;2.17;;;1.80;99.90;;;;;;5079189;28;20903;-71
2021/04/13 00:27:23;;;;;;;3.20;2.07;;;1.80;99.90;;;;;;5076708;28;20434;-71
2021/04/13 00:29:50;;;;;;;2.70;2.50;;;1.80;99.90;;;;;;5079931;28;20470;-71
2021/04/13 00:32:22;;;;;;;2.63;2.43;;;1.80;99.90;;;;;;5081479;28;20518;-71
2021/04/13 00:34:58;;;;;;;2.67;2.57;;;1.80;99.90;;;;;;5079691;28;20422;-71
2021/04/13 00:37:32;;;;;;;2.37;2.27;;;1.80;99.90;;;;;;5081357;28;20428;-71
2021/04/13 00:40:16;;;;;;;2.23;2.13;;;1.80;99.90;;;;;;5078527;28;20486;-71
2021/04/13 00:42:43;;;;;;;2.47;2.27;;;1.80;99.90;;;;;;5081525;28;20755;-71
2021/04/13 00:45:26;;;;;;;3.70;2.13;;;1.80;99.90;;;;;;5095754;28;20740;-71
2021/04/13 00:47:54;;;;;;;6.10;2.53;;;1.70;99.90;;;;;;5081565;28;20429;-71
2021/04/13 00:50:39;;;;;;;4.17;2.70;;;1.70;99.90;;;;;;5080406;28;20862;-71
2021/04/13 00:53:08;;;;;;;2.77;2.50;;;1.70;99.90;;;;;;5081658;28;20423;-71
2021/04/13 00:55:41;;;;;;;2.57;2.37;;;1.60;99.90;;;;;;5080127;28;20815;-71
2021/04/13 00:58:33;;;;;;;2.40;2.20;;;1.60;99.90;;;;;;5077037;28;20455;-71
2021/04/13 01:01:19;;;;;;;4.50;2.70;;;1.60;99.90;;;;;;5095460;28;20429;-71
2021/04/13 01:04:00;;;;;;;2.70;2.23;;;1.50;99.90;;;;;;5081408;28;20476;-71
2021/04/13 01:06:27;;;;;;;3.70;3.00;;;1.50;99.90;;;;;;5078252;28;20918;-71
2021/04/13 01:09:02;;;;;;;2.60;2.20;;;1.50;99.90;;;;;;5079898;28;20506;-71
2021/04/13 01:11:30;;;;;;;4.10;2.57;;;1.50;99.90;;;;;;5081578;28;20461;-71
2021/04/13 01:14:00;;;;;;;5.13;2.83;;;1.50;99.90;;;;;;5077285;28;20869;-71
2021/04/13 01:16:37;;;;;;;4.83;2.43;;;1.60;99.90;;;;;;5079839;28;20436;-71
2021/04/13 01:19:45;;;;;;;2.43;2.23;;;1.60;99.90;;;;;;5080059;28;20501;-71
2021/04/13 01:22:43;;;;;;;7.10;2.07;;;1.60;99.90;;;;;;5080073;28;20919;-71
2021/04/13 01:25:16;;;;;;;3.17;2.60;;;1.60;99.90;;;;;;5074330;28;20419;-71
2021/04/13 01:28:10;;;;;;;3.03;2.77;;;1.50;99.90;;;;;;5081034;28;20424;-71
2021/04/13 01:30:44;;;;;;;4.80;2.10;;;1.50;99.90;;;;;;5077973;28;20792;-71
2021/04/13 01:33:52;;;;;;;2.80;2.60;;;1.50;99.90;;;;;;5078679;28;20509;-71
2021/04/13 01:36:29;;;;;;;4.20;2.50;;;1.50;99.90;;;;;;5078177;28;20521;-71
2021/04/13 01:39:06;;;;;;;3.00;2.80;;;1.60;99.90;;;;;;5079442;28;20753;-71
2021/04/13 01:42:03;;;;;;;6.30;2.50;;;1.60;99.90;;;;;;5077848;28;20423;-71
2021/04/13 01:44:39;;;;;;;2.30;2.10;;;1.60;99.90;;;;;;5080145;28;20791;-71
2021/04/13 01:47:07;;;;;;;2.67;2.57;;;1.60;99.90;;;;;;5075277;28;20418;-71
2021/04/13 01:49:39;;;;;;;3.03;2.30;;;1.70;99.90;;;;;;5088480;28;20488;-71
2021/04/13 01:52:11;;;;;;;3.47;2.43;;;1.70;99.90;;;;;;5074624;28;20415;-71
2021/04/13 01:54:38;;;;;;;3.10;2.90;;;1.70;99.90;;;;;;5078611;28;20468;-71
2021/04/13 01:57:12;;;;;;;2.73;2.60;;;1.70;99.90;;;;;;5078589;28;20418;-71
2021/04/13 01:59:50;;;;;;;2.43;2.23;;;1.60;99.90;;;;;;5076623;28;20429;-71
2021/04/13 02:02:24;;;;;;;2.60;2.33;;;1.60;99.90;;;;;;5080783;28;20473;-71
2021/04/13 02:04:53;;;;;;;2.60;2.40;;;1.60;99.90;;;;;;5079852;28;20953;-71
2021/04/13 02:08:03;;;;;;;2.97;2.80;;;1.50;99.90;;;;;;5080349;28;20431;-71
2021/04/13 02:10:37;;;;;;;2.40;2.20;;;1.40;99.90;;;;;;5072057;28;20469;-71
2021/04/13 02:13:33;;;;;;;3.10;2.90;;;1.50;99.90;;;;;;5078548;28;20483;-71
2021/04/13 02:16:11;;;;;;;3.27;3.00;;;1.50;99.90;;;;;;5079555;28;20842;-71
2021/04/13 02:18:41;;;;;;;2.47;2.37;;;1.50;99.90;;;;;;5082839;28;20417;-71
2021/04/13 02:21:14;;;;;;;2.67;2.47;;;1.40;99.90;;;;;;5081479;28;20434;-71
2021/04/13 02:23:50;;;;;;;4.67;2.50;;;1.40;99.90;;;;;;5081066;28;20529;-71
2021/04/13 02:26:17;;;;;;;3.63;3.10;;;1.40;99.90;;;;;;5083784;28;20423;-71
2021/04/13 02:28:45;;;;;;;2.57;2.37;;;1.30;99.90;;;;;;5084180;28;20424;-71
2021/04/13 02:31:14;;;;;;;3.03;2.70;;;1.30;99.90;;;;;;5084094;28;20468;-71
2021/04/13 02:33:43;;;;;;;3.03;2.73;;;1.20;99.90;;;;;;5081370;28;20441;-71
2021/04/13 02:36:16;;;;;;;3.20;3.00;;;1.20;99.90;;;;;;5079705;28;20422;-71
2021/04/13 02:38:48;;;;;;;8.57;3.50;;;1.20;99.90;;;;;;5083963;28;20441;-71
2021/04/13 02:41:38;;;;;;;3.93;2.70;;;1.20;99.90;;;;;;5083311;28;20903;-71
2021/04/13 02:44:10;;;;;;;4.77;3.07;;;1.20;99.90;;;;;;5081017;28;20422;-71
2021/04/13 02:46:38;;;;;;;3.30;3.00;;;1.10;99.90;;;;;;5082675;28;20548;-71
2021/04/13 02:49:06;;;;;;;5.73;2.80;;;1.10;99.90;;;;;;5084079;28;20525;-71
2021/04/13 02:51:34;;;;;;;3.20;2.90;;;1.10;99.90;;;;;;5080718;28;20526;-71
2021/04/13 02:54:01;;;;;;;2.77;2.57;;;1.10;99.90;;;;;;5083394;28;20425;-71
2021/04/13 02:56:33;;;;;;;2.93;2.73;;;1.20;99.90;;;;;;5080303;28;20466;-71
2021/04/13 02:59:10;;;;;;;7.97;3.53;;;1.20;99.90;;;;;;5083291;28;20787;-71
2021/04/13 03:01:38;;;;;;;3.50;3.20;;;1.10;99.90;;;;;;5076861;28;20507;-71
2021/04/13 03:04:09;;;;;;;2.83;2.63;;;1.10;99.90;;;;;;5083814;28;20910;-71
2021/04/13 03:06:46;;;;;;;4.57;3.17;;;1.10;99.90;;;;;;5081027;28;20426;-71
2021/04/13 03:09:14;;;;;;;3.00;2.60;;;1.10;99.90;;;;;;5083606;28;20918;-70
2021/04/13 03:11:54;;;;;;;2.70;2.50;;;1.10;99.90;;;;;;5081681;28;20470;-71
2021/04/13 03:14:20;;;;;;;3.27;2.53;;;1.10;99.90;;;;;;5081930;28;20439;-70
2021/04/13 03:16:49;;;;;;;3.10;2.90;;;1.10;99.90;;;;;;5080552;28;20890;-70
2021/04/13 03:19:20;;;;;;;8.23;3.13;;;1.10;99.90;;;;;;5084165;28;20414;-70
2021/04/13 03:21:52;;;;;;;4.40;3.47;;;1.10;99.90;;;;;;5079937;28;20501;-71
2021/04/13 03:24:30;;;;;;;2.80;2.70;;;1.10;99.90;;;;;;5079664;28;20470;-71
2021/04/13 03:26:59;;;;;;;5.50;4.20;;;1.10;99.90;;;;;;5081551;28;20428;-71
2021/04/13 03:29:32;;;;;;;7.60;4.10;;;1.20;99.90;;;;;;5081327;28;20460;-71
2021/04/13 03:31:59;;;;;;;6.00;3.00;;;1.20;99.90;;;;;;5081369;28;20425;-71
2021/04/13 03:34:25;;;;;;;3.40;3.10;;;1.20;99.90;;;;;;5081374;28;20427;-71
2021/04/13 03:36:54;;;;;;;4.80;3.40;;;1.20;99.90;;;;;;5080389;28;20435;-70
2021/04/13 03:39:26;;;;;;;4.67;3.10;;;1.20;99.90;;;;;;5082210;28;20754;-71
2021/04/13 03:41:52;;;;;;;3.80;3.40;;;1.20;99.90;;;;;;5083415;28;20930;-70
2021/04/13 03:44:19;;;;;;;8.80;3.63;;;1.20;99.90;;;;;;5080553;28;20422;-71
2021/04/13 03:46:46;;;;;;;7.20;3.60;;;1.30;99.90;;;;;;5080117;28;20425;-70
2021/04/13 03:49:37;;;;;;;3.13;2.93;;;1.30;99.90;;;;;;5083081;28;20426;-71
2021/04/13 03:52:08;;;;;;;12.50;4.43;;;1.30;99.90;;;;;;5077886;28;20434;-70
2021/04/13 03:54:37;;;;;;;9.53;4.43;;;1.30;99.90;;;;;;5081174;28;20927;-71
2021/04/13 03:57:04;;;;;;;3.93;3.53;;;1.20;99.90;;;;;;5079395;28;20900;-71
2021/04/13 03:59:34;;;;;;;4.27;3.80;;;1.40;99.90;;;;;;5081901;28;20428;-71
2021/04/13 04:02:00;;;;;;;7.23;4.20;;;1.40;99.90;;;;;;5082020;28;20429;-71
2021/04/13 04:04:32;;;;;;;5.20;4.37;;;1.30;99.90;;;;;;5079194;28;20435;-71
2021/04/13 04:07:34;;;;;;;3.57;3.27;;;1.30;99.90;;;;;;5081980;28;20502;-70
2021/04/13 04:10:00;;;;;;;8.97;4.50;;;1.30;99.90;;;;;;5081191;28;21001;-71
2021/04/13 04:12:28;;;;;;;7.40;4.00;;;1.30;99.90;;;;;;5082858;28;20429;-71
2021/04/13 04:14:55;;;;;;;5.93;3.53;;;1.30;99.90;;;;;;5082082;28;20267;-71
2021/04/13 04:17:21;;;;;;;8.67;4.10;;;1.40;99.90;;;;;;5082374;28;20432;-71
2021/04/13 04:20:16;;;;;;;5.93;4.50;;;1.40;99.90;;;;;;5082059;28;20514;-71
2021/04/13 04:23:01;;;;;;;4.63;4.23;;;1.30;99.90;;;;;;5079995;28;20936;-71
2021/04/13 04:25:29;;;;;;;8.60;4.10;;;1.40;99.90;;;;;;5080486;28;20974;-71
2021/04/13 04:27:57;;;;;;;6.60;5.07;;;1.40;99.90;;;;;;5081754;28;20423;-71
2021/04/13 04:30:28;;;;;;;4.63;4.00;;;1.40;99.90;;;;;;5081117;28;20873;-71
2021/04/13 04:32:56;;;;;;;10.67;4.10;;;1.40;99.90;;;;;;5079718;28;20431;-71
2021/04/13 04:35:35;;;;;;;5.30;4.50;;;1.40;99.90;;;;;;5078530;28;20832;-71
2021/04/13 04:38:07;;;;;;;4.80;4.10;;;1.40;99.90;;;;;;5079522;28;20464;-71
2021/04/13 04:40:40;;;;;;;4.27;3.97;;;1.40;99.90;;;;;;5081318;28;20454;-71
2021/04/13 04:43:08;;;;;;;5.00;4.43;;;1.50;99.90;;;;;;5079115;28;20437;-71
2021/04/13 04:45:42;;;;;;;6.90;4.23;;;1.40;99.90;;;;;;5078199;28;20493;-70
2021/04/13 04:48:26;;;;;;;9.47;4.90;;;1.40;99.90;;;;;;5080410;28;20444;-71
2021/04/13 04:50:54;;;;;;;7.10;4.20;;;1.50;99.90;;;;;;5081722;28;20838;-71
2021/04/13 04:53:21;;;;;;;4.73;4.23;;;1.50;99.90;;;;;;5079698;28;20826;-70
2021/04/13 04:55:51;;;;;;;5.63;4.43;;;1.60;99.90;;;;;;5078048;28;20469;-70
2021/04/13 04:58:17;;;;;;;4.93;3.57;;;1.60;99.90;;;;;;5078822;28;20771;-70
2021/04/13 05:00:43;;;;;;;9.57;5.53;;;1.60;99.90;;;;;;5078477;28;21265;-71
2021/04/13 05:03:09;;;;;;;8.10;4.60;;;1.70;99.90;;;;;;5077339;28;20518;-71
2021/04/13 05:05:35;;;;;;;5.63;4.27;;;1.60;99.90;;;;;;5074432;28;21013;-71
2021/04/13 05:08:00;;;;;;;5.70;4.07;;;1.70;99.90;;;;;;5070976;28;20173;-71
2021/04/13 05:10:27;;;;;;;5.43;4.20;;;1.70;99.90;;;;;;5078277;28;20553;-71
2021/04/13 05:12:53;;;;;;;6.57;4.63;;;1.70;99.90;;;;;;5081718;28;20182;-71
2021/04/13 05:15:18;;;;;;;5.77;4.23;;;1.70;99.90;;;;;;5072768;28;20817;-71
2021/04/13 05:17:44;;;;;;;7.40;4.30;;;1.70;99.90;;;;;;5078163;28;20630;-71
2021/04/13 05:20:10;;;;;;;5.80;4.07;;;1.70;99.90;;;;;;5078959;28;20432;-71
2021/04/13 05:22:36;;;;;;;5.90;4.10;;;1.80;99.90;;;;;;5077579;28;20180;-71
2021/04/13 05:25:01;;;;;;;11.33;5.00;;;1.70;99.90;;;;;;5072047;28;20845;-71
2021/04/13 05:27:27;;;;;;;10.73;4.80;;;1.80;99.90;;;;;;5078875;28;20241;-70
2021/04/13 05:29:53;;;;;;;4.90;4.13;;;1.80;99.90;;;;;;5078463;28;20650;-70
2021/04/13 05:32:18;;;;;;;6.33;4.83;;;1.80;99.90;;;;;;5080419;28;20181;-70
2021/04/13 05:34:44;;;;;;;9.87;4.47;;;1.90;99.90;;;;;;5077458;28;20187;-70
2021/04/13 05:37:10;;;;;;;7.23;4.33;;;1.90;99.90;;;;;;5070915;28;20179;-70
2021/04/13 05:39:36;;;;;;;9.10;4.90;;;2.00;99.90;;;;;;5074650;28;20431;-71
2021/04/13 05:42:02;;;;;;;4.80;4.27;;;2.00;99.90;;;;;;5075320;28;20557;-70
2021/04/13 05:44:28;;;;;;;5.30;4.13;;;2.00;99.90;;;;;;5070227;28;20194;-70
2021/04/13 05:46:54;;;;;;;17.67;4.57;;;2.00;99.90;;;;;;5072160;28;20431;-70
2021/04/13 05:49:20;;;;;;;14.80;4.37;;;2.00;99.90;;;;;;5080407;28;22177;-70
2021/04/13 05:51:46;;;;;;;8.83;3.80;;;2.00;99.90;;;;;;5079984;28;20419;-70
2021/04/13 05:54:12;;;;;;;6.07;3.97;;;2.10;99.90;;;;;;5083728;28;20521;-70
2021/04/13 05:56:41;;;;;;;4.57;3.70;;;2.20;99.90;;;;;;5082533;28;20524;-70
2021/04/13 05:59:09;;;;;;;9.20;4.10;;;2.20;99.90;;;;;;5082564;28;20221;-70
2021/04/13 06:01:36;;;;;;;9.10;4.43;;;2.10;99.90;;;;;;5084158;28;20437;-70
2021/04/13 06:04:03;;;;;;;4.43;3.63;;;2.30;99.90;;;;;;5083462;28;20437;-71
2021/04/13 06:06:29;;;;;;;5.40;3.83;;;2.30;99.90;;;;;;5084334;28;20439;-70
2021/04/13 06:08:55;;;;;;;4.87;3.37;;;2.30;99.90;;;;;;5077932;28;20419;-71
2021/04/13 06:11:30;;;;;;;6.10;4.00;;;2.20;99.90;;;;;;5079573;28;20214;-71
2021/04/13 06:13:57;;;;;;;6.87;3.77;;;2.20;99.90;;;;;;5079013;28;20356;-71
2021/04/13 06:16:27;;;;;;;9.93;4.30;;;2.40;99.90;;;;;;5082435;28;20444;-71
2021/04/13 06:18:53;;;;;;;5.83;4.00;;;2.40;99.90;;;;;;5081509;28;20414;-71
2021/04/13 06:21:18;;;;;;;5.67;3.30;;;2.40;99.90;;;;;;5084740;28;20479;-71
2021/04/13 06:23:44;;;;;;;10.73;3.40;;;2.40;99.90;;;;;;5082147;28;20172;-71
2021/04/13 06:26:10;;;;;;;8.00;3.83;;;2.50;99.90;;;;;;5082105;28;20180;-71
2021/04/13 06:28:35;;;;;;;7.23;2.90;;;2.60;99.90;;;;;;5081897;28;20188;-71
2021/04/13 06:31:01;;;;;;;4.83;3.27;;;2.60;99.90;;;;;;5082425;28;20294;-71
2021/04/13 06:33:28;;;;;;;7.77;3.63;;;2.70;99.90;;;;;;5082114;28;20195;-71
2021/04/13 06:35:59;;;;;;;12.57;3.10;;;2.90;99.90;;;;;;5075621;28;20796;-71
2021/04/13 06:38:26;;;;;;;8.60;2.53;;;3.00;99.90;;;;;;5079942;28;20441;-71
2021/04/13 06:41:13;;;;;;;5.87;2.80;;;3.00;99.90;;;;;;5082515;28;20414;-71
2021/04/13 06:43:54;;;;;;;4.27;2.50;;;3.10;99.90;;;;;;5081799;28;20428;-70
2021/04/13 06:46:44;;;;;;;5.47;1.90;;;3.20;99.90;;;;;;5081831;28;20436;-71
2021/04/13 06:49:23;;;;;;;3.37;1.97;;;3.30;99.90;;;;;;5081230;28;20421;-71
2021/04/13 06:52:04;;;;;;;3.70;2.20;;;3.50;99.90;;;;;;5080220;28;20802;-71
2021/04/13 06:54:52;;;;;;;7.20;2.43;;;3.50;99.90;;;;;;5082182;28;20512;-70
2021/04/13 06:57:18;;;;;;;2.53;2.20;;;3.50;99.90;;;;;;5075139;28;21254;-70
2021/04/13 07:00:05;;;;;;;2.03;1.93;;;3.50;99.90;;;;;;5081337;28;20518;-70
2021/04/13 07:03:08;;;;;;;2.40;1.67;;;3.60;99.90;;;;;;5080467;28;20184;-70
2021/04/13 07:05:40;;;;;;;4.33;1.80;;;3.70;99.90;;;;;;5080689;28;20424;-70
2021/04/13 07:08:28;;;;;;;5.07;1.67;;;3.70;99.90;;;;;;5081757;28;20501;-70
2021/04/13 07:11:02;;;;;;;4.30;1.80;;;3.70;99.90;;;;;;5077747;28;20790;-70
2021/04/13 07:13:54;;;;;;;2.23;1.00;;;3.50;99.90;;;;;;5078784;28;20434;-70
2021/04/13 07:16:43;;;;;;;3.63;1.53;;;3.30;99.90;;;;;;5082231;28;20407;-70
2021/04/13 07:19:17;;;;;;;1.10;1.00;;;3.10;99.90;;;;;;5074913;28;20419;-71
2021/04/13 07:22:16;;;;;;;1.27;1.17;;;3.10;99.90;;;;;;5071617;28;20436;-71
2021/04/13 07:24:56;;;;;;;4.47;1.77;;;3.20;99.90;;;;;;5075623;28;20423;-70
2021/04/13 07:27:33;;;;;;;1.67;1.57;;;3.40;99.90;;;;;;5077068;28;20444;-70
2021/04/13 07:30:07;;;;;;;2.90;1.93;;;3.50;99.90;;;;;;5077299;28;20540;-70
2021/04/13 07:32:35;;;;;;;2.10;1.87;;;3.60;99.90;;;;;;5077226;28;20425;-70
2021/04/13 07:35:03;;;;;;;2.30;1.80;;;3.70;99.90;;;;;;5076692;28;20468;-70
2021/04/13 07:37:37;;;;;;;2.03;1.50;;;3.80;99.90;;;;;;5073953;28;20444;-70
2021/04/13 07:40:27;;;;;;;2.47;1.90;;;3.90;99.90;;;;;;5074700;28;21709;-70
2021/04/13 07:42:59;;;;;;;4.73;2.07;;;4.00;99.90;;;;;;5080088;28;20468;-70
2021/04/13 07:45:38;;;;;;;3.00;2.17;;;4.00;99.90;;;;;;5077159;28;20434;-70
2021/04/13 07:48:21;;;;;;;2.47;1.37;;;4.00;99.90;;;;;;5078386;28;20455;-70
2021/04/13 07:51:05;;;;;;;6.43;2.50;;;4.10;99.90;;;;;;5077492;28;20506;-71
2021/04/13 07:54:15;;;;;;;6.13;2.50;;;4.20;99.90;;;;;;5076739;28;20418;-71
2021/04/13 07:56:44;;;;;;;6.23;2.03;;;4.30;99.90;;;;;;5077040;28;20426;-71
2021/04/13 07:59:24;;;;;;;4.13;2.40;;;4.40;99.90;;;;;;5078150;28;20926;-70
2021/04/13 08:01:50;;;;;;;5.37;2.00;;;4.40;99.90;;;;;;5077981;28;20438;-71
2021/04/13 08:04:22;;;;;;;7.87;2.03;;;4.40;99.90;;;;;;5081980;28;20435;-71
2021/04/13 08:06:56;;;;;;;6.87;3.27;;;4.60;99.90;;;;;;5079456;28;20206;-71
2021/04/13 08:09:39;;;;;;;3.10;1.97;;;4.90;99.90;;;;;;5079533;28;20456;-71
2021/04/13 08:12:04;;;;;;;3.07;2.43;;;5.00;99.90;;;;;;5075694;28;20574;-71
2021/04/13 08:14:37;;;;;;;2.60;2.00;;;5.10;99.90;;;;;;5078187;28;20511;-70
2021/04/13 08:17:07;;;;;;;4.97;2.40;;;5.20;99.90;;;;;;5074479;28;20172;-71
2021/04/13 08:19:34;;;;;;;3.47;2.27;;;5.30;99.90;;;;;;5078884;28;20423;-70
2021/04/13 08:22:06;;;;;;;11.37;3.20;;;5.40;99.90;;;;;;5073812;28;20723;-70
2021/04/13 08:24:48;;;;;;;7.47;2.27;;;5.60;99.90;;;;;;5078962;28;20437;-70
2021/04/13 08:27:27;;;;;;;5.80;2.20;;;5.80;99.90;;;;;;5079782;28;20515;-71
2021/04/13 08:30:08;;;;;;;5.00;2.83;;;5.80;99.90;;;;;;5079307;28;20461;-70
2021/04/13 08:32:54;;;;;;;3.13;2.53;;;5.80;99.90;;;;;;5081866;28;20522;-70
2021/04/13 08:35:34;;;;;;;6.60;2.90;;;6.00;99.90;;;;;;5080678;28;20424;-71
2021/04/13 08:38:50;;;;;;;5.13;2.70;;;6.10;99.90;;;;;;5080128;28;20457;-70
2021/04/13 08:41:44;;;;;;;10.93;2.20;;;6.10;99.90;;;;;;5079611;28;20539;-71
2021/04/13 08:44:35;;;;;;;11.33;2.67;;;6.10;99.90;;;;;;5078348;28;20530;-71
2021/04/13 08:47:14;;;;;;;4.97;2.40;;;6.20;99.90;;;;;;5076877;28;20446;-72
2021/04/13 08:49:53;;;;;;;4.60;3.17;;;6.30;99.90;;;;;;5074254;28;20434;-72
2021/04/13 08:52:28;;;;;;;5.53;2.30;;;6.60;99.90;;;;;;5077146;28;20424;-72
2021/04/13 08:55:29;;;;;;;6.40;1.77;;;6.70;99.90;;;;;;5080768;28;20439;-72
2021/04/13 08:58:25;;;;;;;7.83;2.27;;;6.70;99.90;;;;;;5079319;28;20430;-72
2021/04/13 09:00:55;;;;;;;4.83;1.83;;;6.70;99.90;;;;;;5076208;28;20453;-72
2021/04/13 09:03:41;;;;;;;3.30;1.97;;;6.70;99.90;;;;;;5075381;28;20446;-71
2021/04/13 09:06:20;;;;;;;11.50;2.10;;;6.60;99.90;;;;;;5079990;28;20536;-71
2021/04/13 09:09:05;;;;;;;1.70;1.60;;;6.90;99.90;;;;;;5078652;28;20430;-72
2021/04/13 09:11:55;;;;;;;3.03;1.93;;;7.20;99.90;;;;;;5081516;28;21012;-72
2021/04/13 09:14:52;;;;;;;3.63;1.60;;;7.40;99.90;;;;;;5081657;28;20423;-72
2021/04/13 09:17:19;;;;;;;4.73;1.83;;;7.70;99.90;;;;;;5079913;28;20466;-72
2021/04/13 09:20:22;;;;;;;7.13;1.80;;;7.50;99.90;;;;;;5078994;28;21169;-71
2021/04/13 09:23:03;;;;;;;3.63;2.00;;;7.40;99.90;;;;;;5080844;28;20440;-71
2021/04/13 09:25:51;;;;;;;3.67;2.17;;;7.40;99.90;;;;;;5075199;28;20434;-72
2021/04/13 09:28:25;;;;;;;2.40;1.47;;;7.30;99.90;;;;;;5079323;28;20834;-71
2021/04/13 09:31:00;;;;;;;13.90;3.30;;;7.60;99.90;;;;;;5077507;28;20469;-71
2021/04/13 09:33:33;;;;;;;6.00;2.10;;;7.90;99.90;;;;;;5076274;28;20913;-72
2021/04/13 09:36:34;;;;;;;9.30;2.50;;;7.70;99.90;;;;;;5077973;28;20458;-72
2021/04/13 09:39:36;;;;;;;4.40;1.97;;;7.80;99.90;;;;;;5080130;28;20434;-72
2021/04/13 09:42:01;;;;;;;11.60;1.53;;;8.00;99.90;;;;;;5080342;28;20426;-72
2021/04/13 09:44:55;;;;;;;3.53;2.73;;;8.30;99.90;;;;;;5080430;28;20436;-72
2021/04/13 09:47:45;;;;;;;3.63;1.70;;;8.40;99.90;;;;;;5076743;28;20211;-72
2021/04/13 09:50:22;;;;;;;7.40;1.97;;;8.40;99.90;;;;;;5078076;28;20541;-72
2021/04/13 09:53:26;;;;;;;5.00;1.40;;;8.20;99.90;;;;;;5078976;28;20434;-71
2021/04/13 09:56:02;;;;;;;6.63;2.43;;;8.10;99.90;;;;;;5080552;28;20438;-72
2021/04/13 09:58:51;;;;;;;6.20;1.37;;;8.40;99.90;;;;;;5081932;28;20650;-71
2021/04/13 10:01:46;;;;;;;3.90;1.70;;;8.50;99.90;;;;;;5080456;28;20697;-72
2021/04/13 10:04:39;;;;;;;5.70;2.10;;;9.10;99.90;;;;;;5079157;28;20434;-72
2021/04/13 10:07:28;;;;;;;4.10;2.00;;;9.30;99.90;;;;;;5078897;28;20426;-72
2021/04/13 10:10:01;;;;;;;4.87;1.70;;;9.10;99.90;;;;;;5073373;28;20443;-72
2021/04/13 10:12:50;;;;;;;1.97;1.50;;;8.90;99.90;;;;;;5073309;28;20418;-72
2021/04/13 10:15:31;;;;;;;5.83;1.50;;;9.30;99.90;;;;;;5068106;28;20639;-72
2021/04/13 10:18:34;;;;;;;4.97;1.73;;;9.00;99.90;;;;;;5078106;28;20434;-72
2021/04/13 10:21:38;;;;;;;4.97;1.33;;;8.60;99.90;;;;;;5078392;28;20427;-72
2021/04/13 10:24:03;;;;;;;5.63;1.00;;;8.30;99.90;;;;;;5078010;28;20431;-72
2021/04/13 10:26:35;;;;;;;1.27;1.17;;;7.80;99.90;;;;;;5077170;28;20494;-72
2021/04/13 10:29:19;;;;;;;3.13;0.80;;;7.50;99.90;;;;;;5077268;28;20184;-72
2021/04/13 10:32:09;;;;;;;5.43;1.10;;;7.40;99.90;;;;;;5077774;28;20460;-72
2021/04/13 10:35:13;;;;;;;2.73;1.00;;;7.30;99.90;;;;;;5072870;28;20435;-72
2021/04/13 10:38:06;;;;;;;4.43;1.27;;;7.20;99.90;;;;;;5073110;28;21068;-72
2021/04/13 10:41:07;;;;;;;3.77;0.80;;;7.10;99.90;;;;;;5077951;28;20519;-72
2021/04/13 10:44:10;;;;;;;3.07;1.43;;;7.10;99.90;;;;;;5075320;28;20441;-72
2021/04/13 10:46:54;;;;;;;2.60;1.33;;;7.60;99.90;;;;;;5075355;28;20446;-72
2021/04/13 10:50:04;;;;;;;3.90;1.23;;;8.30;99.90;;;;;;5077353;28;20768;-72
2021/04/13 10:52:52;;;;;;;2.30;0.90;;;8.60;99.90;;;;;;5074933;28;20430;-72
2021/04/13 10:55:26;;;;;;;2.83;1.60;;;8.50;99.90;;;;;;5076907;28;22567;-72
2021/04/13 10:58:13;;;;;;;7.00;1.40;;;8.20;99.90;;;;;;5076606;28;20441;-71
2021/04/13 11:01:00;;;;;;;3.50;1.67;;;7.90;99.90;;;;;;5076150;28;20414;-72
2021/04/13 11:04:03;;;;;;;10.23;1.83;;;7.60;99.90;;;;;;5069428;28;20462;-71
2021/04/13 11:06:32;;;;;;;4.20;1.10;;;8.00;99.90;;;;;;5074019;28;20414;-71
2021/04/13 11:09:17;;;;;;;2.17;1.30;;;8.30;99.90;;;;;;5076961;28;20805;-71
2021/04/13 11:12:01;;;;;;;2.10;1.20;;;8.60;99.90;;;;;;5072782;28;20466;-72
2021/04/13 11:14:51;;;;;;;2.23;1.50;;;8.40;99.90;;;;;;5075960;28;20418;-71
2021/04/13 11:17:48;;;;;;;7.33;1.20;;;7.80;99.90;;;;;;5072906;28;20452;-71
2021/04/13 11:20:16;;;;;;;4.80;1.23;;;7.50;99.90;;;;;;5081180;28;20436;-71
2021/04/13 11:23:00;;;;;;;6.87;1.30;;;7.40;99.90;;;;;;5078400;28;20505;-71
2021/04/13 11:25:46;;;;;;;7.40;2.23;;;7.30;99.90;;;;;;5075960;28;20456;-71
2021/04/13 11:28:42;;;;;;;4.50;1.10;;;7.70;99.90;;;;;;5076620;28;20437;-71
2021/04/13 11:31:26;;;;;;;3.53;1.60;;;8.00;99.90;;;;;;5082607;28;20480;-72
2021/04/13 11:34:29;;;;;;;1.90;1.40;;;8.30;99.90;;;;;;5073774;28;20510;-72
2021/04/13 11:37:04;;;;;;;5.40;0.90;;;8.70;99.90;;;;;;5063427;28;20805;-72
2021/04/13 11:39:42;;;;;;;5.23;1.30;;;8.80;99.90;;;;;;5080934;28;20427;-72
2021/04/13 11:42:28;;;;;;;2.40;1.40;;;9.20;99.90;;;;;;5076598;28;20438;-72
2021/04/13 11:45:11;;;;;;;2.63;1.60;;;9.50;99.90;;;;;;5078753;28;20437;-71
2021/04/13 11:47:43;;;;;;;1.00;0.90;;;9.30;99.90;;;;;;5076857;28;20509;-72
2021/04/13 11:50:25;;;;;;;6.93;1.67;;;9.50;99.90;;;;;;5074085;28;20438;-71
2021/04/13 11:53:04;;;;;;;5.80;1.43;;;9.50;99.90;;;;;;5075206;28;20431;-71
2021/04/13 11:55:31;;;;;;;10.60;1.97;;;9.40;99.90;;;;;;5083374;28;20498;-71
2021/04/13 11:58:11;;;;;;;7.90;1.67;;;9.00;99.90;;;;;;5075378;28;20419;-71
2021/04/13 12:00:37;;;;;;;8.80;1.70;;;8.40;99.90;;;;;;5072639;28;21214;-71
2021/04/13 12:03:23;;;;;;;1.63;1.30;;;8.30;99.90;;;;;;5074136;28;20442;-71
2021/04/13 12:05:57;;;;;;;6.13;1.87;;;8.70;99.90;;;;;;5076826;28;20923;-72
2021/04/13 12:08:29;;;;;;;5.50;1.63;;;9.10;99.90;;;;;;5076160;28;20462;-72
2021/04/13 12:11:14;;;;;;;5.80;1.77;;;9.60;99.90;;;;;;5069710;28;20574;-71
2021/04/13 12:13:45;;;;;;;4.93;1.47;;;10.00;99.90;;;;;;5078812;28;20509;-71
2021/04/13 12:16:21;;;;;;;4.83;1.50;;;10.10;99.90;;;;;;5074849;28;21080;-72
2021/04/13 12:18:51;;;;;;;4.70;1.90;;;10.30;99.90;;;;;;5073282;28;20433;-71
2021/04/13 12:21:22;;;;;;;6.40;1.60;;;10.40;99.90;;;;;;5077141;28;20434;-71
2021/04/13 12:23:53;;;;;;;4.13;1.03;;;10.50;99.90;;;;;;5069981;28;20427;-72
2021/04/13 12:26:35;;;;;;;4.20;1.60;;;10.60;99.90;;;;;;5078747;28;20433;-72
2021/04/13 12:29:32;;;;;;;6.67;1.70;;;10.50;99.90;;;;;;5074545;28;20433;-71
2021/04/13 12:32:12;;;;;;;1.17;1.07;;;10.70;99.90;;;;;;5077732;28;20437;-72
2021/04/13 12:34:52;;;;;;;3.97;1.20;;;11.10;99.90;;;;;;5069493;28;20422;-72
2021/04/13 12:37:42;;;;;;;3.60;1.50;;;11.10;99.90;;;;;;5073447;28;20446;-71
2021/04/13 12:40:20;;;;;;;2.03;1.00;;;11.20;99.90;;;;;;5080162;28;20491;-72
2021/04/13 12:43:08;;;;;;;2.60;1.23;;;11.40;99.90;;;;;;5079719;28;20462;-72
2021/04/13 12:46:17;;;;;;;2.87;1.10;;;11.20;99.90;;;;;;5081296;28;20446;-71
2021/04/13 12:48:45;;;;;;;4.93;1.80;;;11.30;99.90;;;;;;5077298;28;21047;-72
2021/04/13 12:51:16;;;;;;;7.03;1.57;;;11.50;99.90;;;;;;5078527;28;20556;-72
2021/04/13 12:53:42;;;;;;;2.90;1.47;;;11.20;99.90;;;;;;5080285;28;20419;-71
2021/04/13 12:56:26;;;;;;;1.67;1.10;;;10.90;99.90;;;;;;5078303;28;20992;-72
2021/04/13 12:58:52;;;;;;;5.10;1.03;;;11.20;99.90;;;;;;5079876;28;20178;-71
2021/04/13 13:01:32;;;;;;;2.97;1.27;;;11.30;99.90;;;;;;5077768;28;20426;-72
2021/04/13 13:04:16;;;;;;;8.57;1.73;;;11.70;99.90;;;;;;5079817;28;20236;-72
2021/04/13 13:06:47;;;;;;;7.00;1.40;;;12.00;99.90;;;;;;5079252;28;20438;-73
2021/04/13 13:09:30;;;;;;;2.50;1.30;;;12.40;99.90;;;;;;5079798;28;20766;-72
2021/04/13 13:12:18;;;;;;;2.77;1.23;;;12.30;99.90;;;;;;5081137;28;20453;-72
2021/04/13 13:14:50;;;;;;;7.37;1.33;;;12.00;99.90;;;;;;5077626;28;20960;-72
2021/04/13 13:17:26;;;;;;;3.27;1.33;;;11.60;99.90;;;;;;5080446;28;20451;-72
2021/04/13 13:19:53;;;;;;;5.00;1.43;;;11.70;99.90;;;;;;5081845;28;20421;-72
2021/04/13 13:22:25;;;;;;;4.17;1.40;;;11.90;99.90;;;;;;5082386;28;20414;-72
2021/04/13 13:24:53;;;;;;;2.70;1.40;;;11.60;99.40;;;;;;5078310;28;20756;-72
2021/04/13 13:27:29;;;;;;;2.97;0.90;;;11.40;99.90;;;;;;5077978;28;20478;-72
2021/04/13 13:29:56;;;;;;;3.10;1.10;;;11.90;99.90;;;;;;5078742;28;21030;-72
2021/04/13 13:32:25;;;;;;;3.40;1.40;;;12.00;99.50;;;;;;5081257;28;20411;-72
2021/04/13 13:34:58;;;;;;;5.30;1.30;;;11.50;99.90;;;;;;5070990;28;20567;-72
2021/04/13 13:37:33;;;;;;;3.40;1.70;;;11.30;99.90;;;;;;5076007;28;20419;-72
2021/04/13 13:40:01;;;;;;;6.03;1.20;;;11.40;99.90;;;;;;5079333;28;20422;-72
2021/04/13 13:42:28;;;;;;;2.43;0.90;;;11.20;99.90;;;;;;5075217;28;20782;-72
2021/04/13 13:44:56;;;;;;;3.13;1.00;;;11.10;99.60;;;;;;5078274;28;20476;-72
2021/04/13 13:47:31;;;;;;;2.00;0.90;;;10.60;99.60;;;;;;5079138;28;20434;-72